createdAt,value
2019-04-22T00:01:19.653Z,99210.87
2019-04-22T00:03:52.519Z,99215.08
2019-04-22T00:06:42.495Z,99211.45
2019-04-22T00:09:15.969Z,99212.62
2019-04-22T00:11:38.472Z,99206.45
2019-04-22T00:14:08.374Z,99207.11
2019-04-22T00:16:47.032Z,99195.42
2019-04-22T00:19:15.200Z,99194.47
2019-04-22T00:21:40.644Z,99198.25
2019-04-22T00:24:10.663Z,99192.13
2019-04-22T00:26:46.655Z,99195.48
2019-04-22T00:29:34.272Z,99190.19
2019-04-22T00:31:47.323Z,99188.81
2019-04-22T00:34:16.751Z,99183.89
2019-04-22T00:36:52.637Z,99180.00
2019-04-22T00:39:28.416Z,99178.58
2019-04-22T00:41:49.010Z,99183.19
2019-04-22T00:44:25.666Z,99183.94
2019-04-22T00:46:52.224Z,99174.84
2019-04-22T00:51:59.819Z,99168.11
2019-04-22T00:54:21.501Z,99174.02
2019-04-22T00:56:50.843Z,99171.79
2019-04-22T00:59:19.617Z,99175.48
2019-04-22T01:01:54.323Z,99168.84
2019-04-22T01:04:27.444Z,99162.70
2019-04-22T01:06:51.231Z,99161.68
2019-04-22T01:09:25.436Z,99156.02
2019-04-22T01:11:52.359Z,99151.56
2019-04-22T01:14:23.838Z,99153.23
2019-04-22T01:16:57.747Z,99156.03
2019-04-22T01:19:25.572Z,99154.63
2019-04-22T01:21:56.113Z,99157.53
2019-04-22T01:24:17.540Z,99150.11
2019-04-22T01:26:47.694Z,99146.09
2019-04-22T01:29:12.679Z,99143.46
2019-04-22T01:31:31.436Z,99139.58
2019-04-22T01:34:14.113Z,99137.70
2019-04-22T01:36:48.598Z,99141.88
2019-04-22T01:39:25.006Z,99136.58
2019-04-22T01:44:29.094Z,99136.36
2019-04-22T01:47:00.390Z,99131.52
2019-04-22T01:52:01.449Z,99113.31
2019-04-22T01:54:33.314Z,99129.03
2019-04-22T01:56:53.958Z,99125.63
2019-04-22T01:59:15.844Z,99128.21
2019-04-22T02:01:56.946Z,99122.08
2019-04-22T02:04:33.664Z,99123.27
2019-04-22T02:06:57.257Z,99116.67
2019-04-22T02:09:31.570Z,99116.66
2019-04-22T02:14:26.968Z,99111.40
2019-04-22T02:16:56.759Z,99104.55
2019-04-22T02:19:30.436Z,99109.23
2019-04-22T02:21:56.608Z,99097.69
2019-04-22T02:24:26.471Z,99097.08
2019-04-22T02:34:32.851Z,99095.25
2019-04-22T02:36:56.337Z,99092.16
2019-04-22T02:39:24.628Z,99090.00
2019-04-22T02:41:54.711Z,99087.47
2019-04-22T02:44:43.228Z,99086.55
2019-04-22T02:47:15.214Z,99083.48
2019-04-22T02:49:30.678Z,99085.80
2019-04-22T02:51:52.138Z,99084.77
2019-04-22T02:54:38.405Z,99078.87
2019-04-22T02:57:00.498Z,99076.13
2019-04-22T03:02:15.029Z,99077.73
2019-04-22T03:04:24.777Z,99070.66
2019-04-22T03:06:49.487Z,99068.38
2019-04-22T03:14:30.669Z,99065.92
2019-04-22T03:17:17.456Z,99064.83
2019-04-22T03:22:02.433Z,99059.27
2019-04-22T03:30:33.681Z,99051.60
2019-04-22T03:42:47.038Z,99031.92
2019-04-22T03:45:10.249Z,99035.66
2019-04-22T03:50:16.415Z,99033.74
2019-04-22T03:52:47.219Z,99030.23
2019-04-22T03:55:15.565Z,99029.30
2019-04-22T03:57:49.224Z,99025.80
2019-04-22T04:02:38.846Z,99028.23
2019-04-22T04:05:01.069Z,99021.40
2019-04-22T04:10:10.236Z,99015.67
2019-04-22T04:12:39.972Z,99010.06
2019-04-22T04:15:18.618Z,99011.77
2019-04-22T04:17:36.929Z,99004.81
2019-04-22T04:22:55.979Z,99001.02
2019-04-22T04:25:25.030Z,99001.89
2019-04-22T04:30:23.629Z,99005.98
2019-04-22T04:40:18.186Z,99005.98
2019-04-22T04:53:01.353Z,99006.03
2019-04-22T05:05:20.791Z,99006.20
2019-04-22T05:10:14.193Z,99001.83
2019-04-22T05:12:45.378Z,99007.59
2019-04-22T05:15:04.137Z,99001.33
2019-04-22T05:20:06.744Z,98998.15
2019-04-22T05:24:59.769Z,98997.77
2019-04-22T05:30:23.568Z,99000.89
2019-04-22T05:32:33.848Z,98996.44
2019-04-22T05:35:00.514Z,98994.16
2019-04-22T05:37:27.581Z,98990.52
2019-04-22T05:39:58.744Z,98992.47
2019-04-22T05:42:25.343Z,98991.81
2019-04-22T05:45:00.852Z,98992.06
2019-04-22T05:47:26.097Z,98990.30
2019-04-22T05:49:54.636Z,98988.06
2019-04-22T05:52:26.631Z,98991.48
2019-04-22T05:55:02.980Z,98982.11
2019-04-22T05:57:23.365Z,98980.02
2019-04-22T06:00:01.275Z,98984.63
2019-04-22T06:02:41.731Z,98979.40
2019-04-22T06:05:00.331Z,98980.16
2019-04-22T06:07:26.502Z,98975.88
2019-04-22T06:10:08.336Z,98976.94
2019-04-22T06:12:20.840Z,98976.45
2019-04-22T06:15:00.048Z,98977.36
2019-04-22T06:17:31.186Z,98981.22
2019-04-22T06:19:58.919Z,98984.96
2019-04-22T06:22:37.525Z,98981.36
2019-04-22T06:25:02.990Z,98978.14
2019-04-22T06:29:55.005Z,98976.78
2019-04-22T06:32:36.273Z,98976.88
2019-04-22T06:35:15.200Z,98971.47
2019-04-22T06:37:55.081Z,98979.33
2019-04-22T06:39:59.286Z,98979.89
2019-04-22T06:42:45.549Z,98977.88
2019-04-22T06:45:08.505Z,98982.39
2019-04-22T06:47:49.184Z,98977.36
2019-04-22T06:50:04.879Z,98974.97
2019-04-22T06:52:49.616Z,98972.48
2019-04-22T06:54:59.552Z,98978.67
2019-04-22T06:57:30.703Z,98973.11
2019-04-22T06:59:58.752Z,98973.67
2019-04-22T07:02:43.652Z,98970.33
2019-04-22T07:05:02.196Z,98976.03
2019-04-22T07:07:25.191Z,98971.84
2019-04-22T07:10:08.200Z,98970.26
2019-04-22T07:12:30.544Z,98969.08
2019-04-22T07:15:09.886Z,98960.11
2019-04-22T07:17:38.052Z,98962.84
2019-04-22T07:20:02.050Z,98959.88
2019-04-22T07:22:30.703Z,98956.03
2019-04-22T07:24:58.598Z,98948.83
2019-04-22T07:27:29.242Z,98951.09
2019-04-22T07:30:05.281Z,98944.22
2019-04-22T07:32:53.572Z,98943.02
2019-04-22T07:35:01.032Z,98938.82
2019-04-22T07:37:43.459Z,98937.59
2019-04-22T07:39:59.839Z,98941.10
2019-04-22T07:42:34.473Z,98938.16
2019-04-22T07:47:34.165Z,98933.50
2019-04-22T07:50:05.489Z,98928.78
2019-04-22T07:55:03.572Z,98916.30
2019-04-22T07:57:32.519Z,98918.96
2019-04-22T08:00:02.912Z,98915.98
2019-04-22T08:05:05.462Z,98917.42
2019-04-22T08:07:37.711Z,98917.91
2019-04-22T08:10:12.487Z,98911.87
2019-04-22T08:12:36.102Z,98911.06
2019-04-22T08:14:59.784Z,98913.26
2019-04-22T08:17:51.861Z,98905.08
2019-04-22T08:20:02.806Z,98911.59
2019-04-22T08:22:27.254Z,98903.83
2019-04-22T08:25:00.318Z,98909.46
2019-04-22T08:27:31.968Z,98908.66
2019-04-22T08:30:11.767Z,98901.70
2019-04-22T08:32:37.879Z,98893.48
2019-04-22T08:35:04.889Z,98891.36
2019-04-22T08:40:09.552Z,98894.88
2019-04-22T08:42:43.499Z,98886.64
2019-04-22T08:45:09.695Z,98891.45
2019-04-22T08:50:20.375Z,98883.20
2019-04-22T08:52:33.774Z,98885.80
2019-04-22T08:55:08.616Z,98884.52
2019-04-22T09:00:02.920Z,98875.39
2019-04-22T09:02:36.975Z,98868.88
2019-04-22T09:05:10.535Z,98867.15
2019-04-22T09:07:31.747Z,98861.48
2019-04-22T09:10:02.018Z,98858.02
2019-04-22T09:12:47.832Z,98854.51
2019-04-22T09:14:58.694Z,98844.52
2019-04-22T09:17:34.590Z,98842.34
2019-04-22T09:20:00.698Z,98846.25
2019-04-22T09:25:01.072Z,98834.90
2019-04-22T09:27:40.006Z,98829.69
2019-04-22T09:30:09.116Z,98826.59
2019-04-22T09:32:38.291Z,98819.62
2019-04-22T09:35:15.964Z,98810.05
2019-04-22T09:37:39.310Z,98811.30
2019-04-22T09:40:13.987Z,98804.75
2019-04-22T09:42:39.666Z,98800.34
2019-04-22T09:45:06.040Z,98792.86
2019-04-22T09:47:46.838Z,98793.20
2019-04-22T09:52:37.679Z,98785.67
2019-04-22T09:55:12.992Z,98779.54
2019-04-22T09:57:31.453Z,98773.34
2019-04-22T10:05:07.661Z,98767.71
2019-04-22T10:07:35.629Z,98758.88
2019-04-22T10:10:09.089Z,98757.88
2019-04-22T10:12:36.996Z,98753.13
2019-04-22T10:15:00.605Z,98748.18
2019-04-22T10:17:33.630Z,98744.98
2019-04-22T10:20:08.986Z,98739.25
2019-04-22T10:22:43.966Z,98733.19
2019-04-22T10:25:04.882Z,98722.67
2019-04-22T10:27:38.345Z,98725.54
2019-04-22T10:30:04.139Z,98721.45
2019-04-22T10:32:33.936Z,98717.35
2019-04-22T10:35:03.175Z,98710.57
2019-04-22T10:37:28.153Z,98706.58
2019-04-22T10:40:00.969Z,98703.85
2019-04-22T10:42:29.254Z,98702.42
2019-04-22T10:44:59.286Z,98694.12
2019-04-22T10:47:28.066Z,98688.37
2019-04-22T10:49:56.505Z,98685.95
2019-04-22T10:52:25.652Z,98678.19
2019-04-22T10:54:54.101Z,98682.23
2019-04-22T10:57:22.344Z,98665.07
2019-04-22T10:59:52.036Z,98666.08
2019-04-22T11:02:21.563Z,98669.98
2019-04-22T11:04:50.177Z,98664.92
2019-04-22T11:07:19.410Z,98659.53
2019-04-22T11:09:57.155Z,98656.46
2019-04-22T11:12:22.859Z,98649.42
2019-04-22T11:14:49.731Z,98635.41
2019-04-22T11:17:19.298Z,98645.81
2019-04-22T11:19:47.991Z,98639.64
2019-04-22T11:22:22.032Z,98633.44
2019-04-22T11:24:46.739Z,98627.62
2019-04-22T11:27:15.031Z,98629.61
2019-04-22T11:29:43.650Z,98622.98
2019-04-22T11:32:12.888Z,98603.83
2019-04-22T11:34:42.704Z,98609.56
2019-04-22T11:37:12.310Z,98608.08
2019-04-22T11:39:40.790Z,98597.89
2019-04-22T11:42:10.000Z,98594.56
2019-04-22T11:44:39.136Z,98588.06
2019-04-22T11:47:07.711Z,98584.44
2019-04-22T11:49:36.277Z,98580.80
2019-04-22T11:52:06.819Z,98579.70
2019-04-22T11:54:34.742Z,98576.55
2019-04-22T11:57:03.129Z,98567.62
2019-04-22T11:59:31.344Z,98565.73
2019-04-22T12:02:00.568Z,98574.82
2019-04-22T12:04:30.001Z,98567.42
2019-04-22T12:06:58.230Z,98564.19
2019-04-22T12:09:27.888Z,98563.78
2019-04-22T12:11:56.251Z,98556.89
2019-04-22T12:14:25.678Z,98554.02
2019-04-22T12:16:55.319Z,98544.89
2019-04-22T12:19:25.057Z,98548.27
2019-04-22T12:21:53.500Z,98543.59
2019-04-22T12:24:21.741Z,98545.20
2019-04-22T12:26:50.649Z,98530.36
2019-04-22T12:29:20.471Z,98531.52
2019-04-22T12:31:49.437Z,98528.84
2019-04-22T12:34:17.745Z,98529.34
2019-04-22T12:36:46.835Z,98528.68
2019-04-22T12:39:15.687Z,98521.20
2019-04-22T12:41:44.438Z,98511.38
2019-04-22T12:44:13.349Z,98510.95
2019-04-22T12:46:43.976Z,98503.27
2019-04-22T12:49:12.274Z,98505.05
2019-04-22T12:51:40.983Z,98501.56
2019-04-22T12:54:10.908Z,98490.63
2019-04-22T12:56:39.549Z,98496.41
2019-04-22T12:59:07.760Z,98489.19
2019-04-22T13:01:37.198Z,98487.02
2019-04-22T13:04:09.076Z,98483.92
2019-04-22T13:06:35.735Z,98477.17
2019-04-22T13:09:06.250Z,98471.98
2019-04-22T13:11:36.554Z,98469.03
2019-04-22T13:14:05.075Z,98472.94
2019-04-22T13:16:33.532Z,98460.06
2019-04-22T13:19:06.937Z,98459.11
2019-04-22T13:21:32.984Z,98451.58
2019-04-22T13:24:02.718Z,98446.67
2019-04-22T13:26:32.001Z,98442.32
2019-04-22T13:29:01.041Z,98444.95
2019-04-22T13:31:30.901Z,98435.79
2019-04-22T13:34:01.706Z,98429.94
2019-04-22T13:36:30.249Z,98431.70
2019-04-22T13:39:00.717Z,98422.11
2019-04-22T13:41:40.476Z,98416.09
2019-04-22T13:44:03.039Z,98415.36
2019-04-22T13:46:33.633Z,98408.50
2019-04-22T13:49:38.259Z,98413.56
2019-04-22T13:56:52.142Z,98398.51
2019-04-22T13:59:15.127Z,98398.58
2019-04-22T14:01:40.976Z,98391.11
2019-04-22T14:04:12.149Z,98388.30
2019-04-22T14:06:40.804Z,98376.94
2019-04-22T14:09:09.673Z,98389.48
2019-04-22T14:11:46.156Z,98385.28
2019-04-22T14:14:09.033Z,98377.14
2019-04-22T14:16:37.668Z,98373.61
2019-04-22T14:19:07.690Z,98369.98
2019-04-22T14:21:36.879Z,98366.20
2019-04-22T14:24:07.331Z,98363.39
2019-04-22T14:26:54.775Z,98355.86
2019-04-22T14:29:06.085Z,98362.86
2019-04-22T14:31:36.067Z,98356.70
2019-04-22T14:36:35.297Z,98343.11
2019-04-22T14:39:05.995Z,98332.09
2019-04-22T14:41:49.013Z,98332.94
2019-04-22T14:44:04.583Z,98349.34
2019-04-22T14:47:05.661Z,98328.62
2019-04-22T14:49:28.541Z,98326.23
2019-04-22T14:51:58.838Z,98323.94
2019-04-22T14:54:21.305Z,98315.74
2019-04-22T14:56:36.114Z,98315.33
2019-04-22T14:59:05.081Z,98310.58
2019-04-22T15:01:34.941Z,98307.72
2019-04-22T15:04:03.525Z,98314.34
2019-04-22T15:06:31.874Z,98302.20
2019-04-22T15:09:00.084Z,98301.78
2019-04-22T15:11:29.011Z,98296.27
2019-04-22T15:13:59.207Z,98298.61
2019-04-22T15:16:36.345Z,98290.41
2019-04-22T15:19:09.563Z,98291.13
2019-04-22T15:21:38.689Z,98290.52
2019-04-22T15:24:25.808Z,98289.68
2019-04-22T15:26:56.561Z,98288.50
2019-04-22T15:29:25.370Z,98288.27
2019-04-22T15:31:55.538Z,98285.44
2019-04-22T15:34:24.961Z,98278.73
2019-04-22T15:36:54.010Z,98274.17
2019-04-22T15:39:23.142Z,98275.80
2019-04-22T15:42:00.456Z,98269.62
2019-04-22T15:44:21.946Z,98267.37
2019-04-22T15:46:51.014Z,98262.37
2019-04-22T15:49:20.176Z,98263.22
2019-04-22T15:51:49.046Z,98258.66
2019-04-22T15:54:17.497Z,98256.09
2019-04-22T15:56:46.547Z,98253.13
2019-04-22T15:59:31.169Z,98256.84
2019-04-22T16:01:46.657Z,98250.38
2019-04-22T16:04:15.000Z,98249.91
2019-04-22T16:06:43.259Z,98241.37
2019-04-22T16:09:13.208Z,98244.23
2019-04-22T16:11:42.245Z,98240.98
2019-04-22T16:14:10.625Z,98239.30
2019-04-22T16:16:39.028Z,98239.58
2019-04-22T16:19:08.623Z,98233.06
2019-04-22T16:21:45.466Z,98233.11
2019-04-22T16:24:22.326Z,98223.20
2019-04-22T16:26:56.110Z,98224.39
2019-04-22T16:29:25.155Z,98218.69
2019-04-22T16:31:53.498Z,98222.73
2019-04-22T16:34:21.919Z,98216.36
2019-04-22T16:36:50.150Z,98205.87
2019-04-22T16:39:18.588Z,98203.88
2019-04-22T16:41:46.810Z,98204.21
2019-04-22T16:44:16.466Z,98200.13
2019-04-22T16:46:45.739Z,98201.05
2019-04-22T16:49:14.123Z,98195.83
2019-04-22T16:51:42.322Z,98202.73
2019-04-22T16:54:11.771Z,98202.39
2019-04-22T16:56:41.672Z,98201.66
2019-04-22T16:59:10.768Z,98203.22
2019-04-22T17:01:43.606Z,98200.50
2019-04-22T17:04:14.465Z,98201.94
2019-04-22T17:06:45.592Z,98200.84
2019-04-22T17:09:15.962Z,98197.34
2019-04-22T17:11:43.969Z,98200.77
2019-04-22T17:14:13.394Z,98199.18
2019-04-22T17:16:42.169Z,98195.82
2019-04-22T17:19:11.162Z,98196.70
2019-04-22T17:21:39.785Z,98196.56
2019-04-22T17:24:09.688Z,98200.02
2019-04-22T17:26:38.804Z,98196.13
2019-04-22T17:29:08.469Z,98201.13
2019-04-22T17:31:40.912Z,98201.38
2019-04-22T17:34:07.038Z,98208.18
2019-04-22T17:36:36.243Z,98189.75
2019-04-22T17:39:22.786Z,98201.66
2019-04-22T17:41:55.559Z,98203.30
2019-04-22T17:44:37.741Z,98204.23
2019-04-22T17:46:54.777Z,98206.06
2019-04-22T17:49:46.990Z,98200.95
2019-04-22T17:54:49.720Z,98209.24
2019-04-22T17:57:21.192Z,98211.27
2019-04-22T17:59:47.002Z,98213.45
2019-04-22T18:02:16.748Z,98218.98
2019-04-22T18:04:37.308Z,98228.45
2019-04-22T18:07:27.822Z,98225.34
2019-04-22T18:10:16.424Z,98224.65
2019-04-22T18:12:26.637Z,98228.58
2019-04-22T18:14:52.841Z,98228.68
2019-04-22T18:17:27.369Z,98233.88
2019-04-22T18:19:46.020Z,98221.52
2019-04-22T18:22:12.556Z,98223.70
2019-04-22T18:24:46.356Z,98232.16
2019-04-22T18:27:35.995Z,98229.33
2019-04-22T18:29:46.133Z,98234.70
2019-04-22T18:32:10.032Z,98245.75
2019-04-22T18:34:39.866Z,98242.55
2019-04-22T18:37:18.144Z,98235.92
2019-04-22T18:39:52.711Z,98234.72
2019-04-22T18:42:17.118Z,98247.52
2019-04-22T18:44:55.539Z,98242.86
2019-04-22T18:47:23.356Z,98246.53
2019-04-22T18:49:46.282Z,98245.42
2019-04-22T18:52:19.911Z,98245.57
2019-04-22T18:55:02.576Z,98247.60
2019-04-22T18:57:46.059Z,98255.52
2019-04-22T19:00:10.827Z,98256.55
2019-04-22T19:02:47.439Z,98260.21
2019-04-22T19:05:22.275Z,98259.86
2019-04-22T19:08:07.056Z,98260.86
2019-04-22T19:10:50.032Z,98267.15
2019-04-22T19:13:31.144Z,98270.22
2019-04-22T19:15:36.804Z,98272.03
2019-04-22T19:18:12.697Z,98276.91
2019-04-22T19:20:38.056Z,98277.86
2019-04-22T19:23:06.907Z,98279.30
2019-04-22T19:25:28.541Z,98277.14
2019-04-22T19:28:15.685Z,98282.06
2019-04-22T19:30:36.964Z,98286.41
2019-04-22T19:33:17.671Z,98287.75
2019-04-22T19:35:32.978Z,98293.50
2019-04-22T19:37:59.908Z,98285.72
2019-04-22T19:40:47.586Z,98277.98
2019-04-22T19:43:13.262Z,98284.53
2019-04-22T19:45:37.028Z,98284.58
2019-04-22T19:48:23.313Z,98277.29
2019-04-22T19:50:50.452Z,98283.39
2019-04-22T19:53:19.589Z,98284.34
2019-04-22T19:55:40.960Z,98283.95
2019-04-22T19:58:08.829Z,98286.58
2019-04-22T20:00:51.999Z,98288.81
2019-04-22T20:03:56.314Z,98287.08
2019-04-22T20:06:35.002Z,98286.70
2019-04-22T20:09:10.909Z,98282.82
2019-04-22T20:11:34.079Z,98278.09
2019-04-22T20:14:06.327Z,98277.29
2019-04-22T20:16:32.484Z,98275.14
2019-04-22T20:19:12.023Z,98277.37
2019-04-22T20:21:38.080Z,98277.38
2019-04-22T20:23:57.164Z,98278.27
2019-04-22T20:26:44.835Z,98270.09
2019-04-22T20:29:02.700Z,98276.17
2019-04-22T20:31:38.036Z,98276.22
2019-04-22T20:34:09.157Z,98273.64
2019-04-22T20:39:04.965Z,98263.26
2019-04-22T20:41:34.171Z,98265.47
2019-04-22T20:44:12.865Z,98262.87
2019-04-22T20:46:39.638Z,98262.45
2019-04-22T20:49:06.557Z,98267.66
2019-04-22T20:51:50.229Z,98269.86
2019-04-22T20:54:09.039Z,98273.73
2019-04-22T20:56:34.208Z,98278.06
2019-04-22T20:59:08.746Z,98277.23
2019-04-22T21:01:41.595Z,98283.73
2019-04-22T21:03:53.605Z,98294.13
2019-04-22T21:06:38.386Z,98279.84
2019-04-22T21:09:07.346Z,98280.73
2019-04-22T21:11:36.715Z,98277.28
2019-04-22T21:14:06.386Z,98273.38
2019-04-22T21:16:40.115Z,98281.60
2019-04-22T21:19:18.646Z,98282.50
2019-04-22T21:21:37.711Z,98278.60
2019-04-22T21:23:59.401Z,98280.77
2019-04-22T21:26:36.526Z,98284.66
2019-04-22T21:29:02.247Z,98287.27
2019-04-22T21:31:41.305Z,98284.67
2019-04-22T21:34:05.118Z,98284.70
2019-04-22T21:36:42.967Z,98281.66
2019-04-22T21:39:03.413Z,98282.09
2019-04-22T21:41:36.878Z,98285.11
2019-04-22T21:44:06.031Z,98283.37
2019-04-22T21:46:44.327Z,98284.69
2019-04-22T21:49:12.963Z,98280.78
2019-04-22T21:51:43.440Z,98272.56
2019-04-22T21:54:16.405Z,98265.19
2019-04-22T21:56:59.770Z,98266.09
2019-04-22T21:59:12.575Z,98264.74
2019-04-22T22:04:18.953Z,98270.80
2019-04-22T22:06:38.055Z,98257.81
2019-04-22T22:09:15.722Z,98255.63
2019-04-22T22:11:45.981Z,98254.34
2019-04-22T22:14:11.792Z,98258.23
2019-04-22T22:16:41.055Z,98254.76
2019-04-22T22:19:17.775Z,98259.05
2019-04-22T22:21:51.379Z,98255.17
2019-04-22T22:24:21.142Z,98257.31
2019-04-22T22:26:46.281Z,98248.66
2019-04-22T22:29:31.821Z,98246.06
2019-04-22T22:31:47.005Z,98250.41
2019-04-22T22:34:16.618Z,98248.64
2019-04-22T22:36:40.856Z,98246.47
2019-04-22T22:39:08.208Z,98246.02
2019-04-22T22:41:25.993Z,98241.72
2019-04-22T22:44:04.795Z,98235.64
2019-04-22T22:46:34.178Z,98235.63
2019-04-22T22:49:20.362Z,98235.61
2019-04-22T22:52:16.708Z,98233.88
2019-04-22T22:54:21.459Z,98229.56
2019-04-22T22:56:57.604Z,98223.50
2019-04-22T22:59:18.255Z,98226.92
2019-04-22T23:01:45.431Z,98221.75
2019-04-22T23:04:28.373Z,98223.46
2019-04-22T23:06:50.321Z,98217.39
2019-04-22T23:09:19.565Z,98217.37
2019-04-22T23:14:20.361Z,98214.28
2019-04-22T23:16:37.837Z,98204.33
2019-04-22T23:19:04.486Z,98200.42
2019-04-22T23:21:39.769Z,98202.14
2019-04-22T23:24:21.516Z,98199.53
2019-04-22T23:26:58.648Z,98192.61
2019-04-22T23:29:25.371Z,98199.06
2019-04-22T23:32:01.662Z,98202.48
2019-04-22T23:34:32.460Z,98191.70
2019-04-22T23:37:05.422Z,98185.63
2019-04-22T23:39:48.494Z,98187.77
2019-04-22T23:42:12.601Z,98181.72
2019-04-22T23:44:42.272Z,98187.74
2019-04-22T23:47:04.896Z,98182.53
2019-04-22T23:49:32.532Z,98180.77
2019-04-22T23:52:16.384Z,98180.31
2019-04-22T23:54:50.871Z,98176.01
2019-04-22T23:57:14.950Z,98168.64
2019-04-22T23:59:49.284Z,98164.77
